Time;durP1;ratioP1;P1;durP2;ratioP2;P2;SDS_P1;SDS_P2;PMS_P1;PMS_P2;Temp;Humidity;BMP_temperature;BMP_pressure;BME280_temperature;BME280_humidity;BME280_pressure;Samples;Min_cycle;Max_cycle;Signal;HPM_P1;HPM_P2
2023/04/29 00:02:07;;;;;;;;;;;;;;;16.76;100.00;99807.94;5087957;28;19924;-56
2023/04/29 00:04:33;;;;;;;;;;;;;;;16.73;100.00;99806.31;5086775;28;19932;-56
2023/04/29 00:06:58;;;;;;;;;;;;;;;16.69;100.00;99803.88;5087870;28;19920;-56
2023/04/29 00:09:24;;;;;;;;;;;;;;;16.63;100.00;99804.25;5088299;28;19916;-56
2023/04/29 00:11:50;;;;;;;;;;;;;;;16.57;100.00;99804.66;5088064;28;19916;-55
2023/04/29 00:14:15;;;;;;;;;;;;;;;16.57;100.00;99804.66;5088093;28;19920;-56
2023/04/29 00:16:41;;;;;;;;;;;;;;;16.56;100.00;99805.59;5087414;28;19918;-56
2023/04/29 00:19:06;;;;;;;;;;;;;;;16.59;100.00;99808.13;5088078;28;19926;-56
2023/04/29 00:21:32;;;;;;;;;;;;;;;16.59;100.00;99808.13;5088138;28;20356;-56
2023/04/29 00:23:57;;;;;;;;;;;;;;;16.58;100.00;99811.75;5088173;28;19930;-56
2023/04/29 00:26:22;;;;;;;;;;;;;;;16.55;100.00;99815.50;5089455;28;20720;-55
2023/04/29 00:28:48;;;;;;;;;;;;;;;16.49;100.00;99817.69;5088843;28;19916;-56
2023/04/29 00:31:13;;;;;;;;;;;;;;;16.47;100.00;99817.78;5087143;28;19916;-56
2023/04/29 00:33:39;;;;;;;;;;;;;;;16.43;100.00;99813.50;5087588;28;19920;-55
2023/04/29 00:36:05;;;;;;;;;;;;;;;16.42;100.00;99822.50;5087780;28;19935;-56
2023/04/29 00:38:30;;;;;;;;;;;;;;;16.40;100.00;99815.50;5086457;28;19916;-55
2023/04/29 00:40:56;;;;;;;;;;;;;;;16.39;100.00;99822.66;5087861;28;19923;-55
2023/04/29 00:43:21;;;;;;;;;;;;;;;16.39;100.00;99816.47;5069543;28;20034;-56
2023/04/29 00:45:46;;;;;;;;;;;;;;;16.38;100.00;99814.72;5088609;28;20014;-55
2023/04/29 00:48:14;;;;;;;;;;;;;;;16.38;100.00;99817.38;5088396;28;20341;-55
2023/04/29 00:50:39;;;;;;;;;;;;;;;16.37;100.00;99813.88;5089061;28;19920;-56
2023/04/29 00:53:05;;;;;;;;;;;;;;;16.36;100.00;99813.97;5088121;28;19916;-56
2023/04/29 00:55:32;;;;;;;;;;;;;;;16.34;100.00;99823.91;5087191;28;20010;-56
2023/04/29 00:57:57;;;;;;;;;;;;;;;16.33;100.00;99819.47;5086261;28;20031;-56
2023/04/29 01:00:25;;;;;;;;;;;;;;;16.31;100.00;99819.56;5087269;28;20011;-56
2023/04/29 01:02:51;;;;;;;;;;;;;;;16.32;100.00;99821.31;5086672;28;19974;-56
2023/04/29 01:05:16;;;;;;;;;;;;;;;16.28;100.00;99819.75;5086737;28;20002;-55
2023/04/29 01:07:47;;;;;;;;;;;;;;;16.27;100.00;99822.53;5087347;28;20020;-55
2023/04/29 01:10:21;;;;;;;;;;;;;;;16.28;100.00;99818.88;5088387;28;20340;-55
2023/04/29 01:12:53;;;;;;;;;;;;;;;16.26;100.00;99827.03;5088116;28;19916;-55
2023/04/29 01:15:23;;;;;;;;;;;;;;;16.22;100.00;99824.63;5088135;28;20412;-55
2023/04/29 01:17:55;;;;;;;;;;;;;;;16.17;100.00;99826.72;5087440;28;19931;-55
2023/04/29 01:20:21;;;;;;;;;;;;;;;16.18;100.00;99833.78;5093870;28;19915;-55
2023/04/29 01:22:47;;;;;;;;;;;;;;;16.16;100.00;99825.00;5094019;28;19920;-56
2023/04/29 01:25:13;;;;;;;;;;;;;;;16.16;100.00;99830.38;5093655;28;19974;-55
2023/04/29 01:27:46;;;;;;;;;;;;;;;16.14;100.00;99827.78;5097002;28;19915;-55
2023/04/29 01:30:32;;;;;;;;;;;;;;;16.12;100.00;99827.00;5094061;28;20402;-55
2023/04/29 01:33:15;;;;;;;;;;;;;;;16.08;100.00;99833.47;5052422;28;20634;-55
2023/04/29 01:35:41;;;;;;;;;;;;;;;16.09;100.00;99828.97;5093437;28;19971;-56
2023/04/29 01:38:24;;;;;;;;;;;;;;;16.06;100.00;99829.16;5094115;28;20386;-55
2023/04/29 01:40:58;;;;;;;;;;;;;;;16.04;100.00;99820.31;5078096;28;20409;-56
2023/04/29 01:43:27;;;;;;;;;;;;;;;16.06;100.00;99823.78;5094149;28;19924;-55
2023/04/29 01:45:55;;;;;;;;;;;;;;;16.04;100.00;99826.56;5094008;28;19938;-56
2023/04/29 01:48:20;;;;;;;;;;;;;;;16.06;100.00;99829.16;5094679;28;20601;-55
2023/04/29 01:50:46;;;;;;;;;;;;;;;15.99;100.00;99827.78;5092928;28;19928;-55
2023/04/29 01:53:11;;;;;;;;;;;;;;;15.94;100.00;99835.22;5093809;28;19931;-56
2023/04/29 01:55:37;;;;;;;;;;;;;;;15.86;100.00;99832.13;5092644;28;19920;-55
2023/04/29 01:58:02;;;;;;;;;;;;;;;15.81;100.00;99835.91;5093462;28;20311;-55
2023/04/29 02:00:27;;;;;;;;;;;;;;;15.78;100.00;99835.25;5093581;28;19916;-55
2023/04/29 02:02:53;;;;;;;;;;;;;;;15.80;100.00;99842.25;5091327;28;19920;-55
2023/04/29 02:05:18;;;;;;;;;;;;;;;15.79;100.00;99840.53;5092929;28;19915;-55
2023/04/29 02:07:44;;;;;;;;;;;;;;;15.81;100.00;99838.59;5092714;28;19970;-56
2023/04/29 02:10:10;;;;;;;;;;;;;;;15.83;100.00;99838.53;5094392;28;20454;-56
2023/04/29 02:12:36;;;;;;;;;;;;;;;15.79;100.00;99837.84;5094729;28;20347;-56
2023/04/29 02:15:01;;;;;;;;;;;;;;;15.80;100.00;99836.00;5093670;28;19919;-55
2023/04/29 02:17:26;;;;;;;;;;;;;;;15.78;100.00;99840.63;5093978;28;19952;-55
2023/04/29 02:19:53;;;;;;;;;;;;;;;15.71;100.00;99840.09;5092690;28;19919;-55
2023/04/29 02:22:19;;;;;;;;;;;;;;;15.68;100.00;99845.59;5093444;28;19992;-55
2023/04/29 02:24:44;;;;;;;;;;;;;;;15.61;100.00;99838.88;5091989;28;19924;-55
2023/04/29 02:27:10;;;;;;;;;;;;;;;15.63;100.00;99841.47;5093407;28;20022;-55
2023/04/29 02:29:35;;;;;;;;;;;;;;;15.63;100.00;99836.09;5092574;28;19927;-55
2023/04/29 02:32:00;;;;;;;;;;;;;;;15.62;100.00;99845.94;5089341;28;19954;-56
2023/04/29 02:34:26;;;;;;;;;;;;;;;15.58;100.00;99839.00;5090994;28;19927;-56
2023/04/29 02:36:51;;;;;;;;;;;;;;;15.48;100.00;99851.22;5091113;28;20446;-55
2023/04/29 02:39:16;;;;;;;;;;;;;;;15.45;100.00;99859.41;5090660;28;19973;-56
2023/04/29 02:41:42;;;;;;;;;;;;;;;15.42;100.00;99861.41;5091001;28;19952;-55
2023/04/29 02:44:07;;;;;;;;;;;;;;;15.36;100.00;99859.91;5089621;28;20019;-55
2023/04/29 02:46:34;;;;;;;;;;;;;;;15.39;100.00;99861.56;5089586;28;20415;-55
2023/04/29 02:48:59;;;;;;;;;;;;;;;15.38;100.00;99863.38;5088817;28;19927;-55
2023/04/29 02:51:25;;;;;;;;;;;;;;;15.30;100.00;99870.09;5090489;28;19920;-55
2023/04/29 02:53:50;;;;;;;;;;;;;;;15.28;100.00;99872.84;5093962;28;19916;-56
2023/04/29 02:56:16;;;;;;;;;;;;;;;15.27;100.00;99879.13;5089878;28;19920;-55
2023/04/29 02:58:41;;;;;;;;;;;;;;;15.21;100.00;99871.44;5089930;28;19919;-55
2023/04/29 03:01:06;;;;;;;;;;;;;;;15.18;100.00;99881.44;5089782;28;20019;-55
2023/04/29 03:03:32;;;;;;;;;;;;;;;15.17;100.00;99885.94;5089041;28;19943;-55
2023/04/29 03:06:15;;;;;;;;;;;;;;;15.16;100.00;99877.97;5089674;28;20002;-55
2023/04/29 03:08:41;;;;;;;;;;;;;;;15.13;100.00;99881.72;5088440;28;20602;-56
2023/04/29 03:11:06;;;;;;;;;;;;;;;15.10;100.00;99878.31;5090124;28;19916;-56
2023/04/29 03:13:31;;;;;;;;;;;;;;;15.06;100.00;99877.63;5089686;28;20567;-56
2023/04/29 03:15:59;;;;;;;;;;;;;;;15.06;100.00;99880.28;5090211;28;19920;-56
2023/04/29 03:18:24;;;;;;;;;;;;;;;15.02;100.00;99884.09;5090629;28;19917;-55
2023/04/29 03:20:49;;;;;;;;;;;;;;;14.96;100.00;99884.41;5089193;28;20403;-55
2023/04/29 03:23:15;;;;;;;;;;;;;;;14.99;100.00;99886.91;5089342;28;19928;-56
2023/04/29 03:25:40;;;;;;;;;;;;;;;14.97;100.00;99888.81;5088510;28;19920;-56
2023/04/29 03:28:05;;;;;;;;;;;;;;;14.98;100.00;99890.53;5089277;28;20375;-55
2023/04/29 03:30:31;;;;;;;;;;;;;;;14.92;100.00;99885.53;5089191;28;19927;-56
2023/04/29 03:32:56;;;;;;;;;;;;;;;14.87;100.00;99889.38;5090777;28;20639;-55
2023/04/29 03:35:22;;;;;;;;;;;;;;;14.81;100.00;99887.88;5089405;28;19958;-56
2023/04/29 03:37:47;;;;;;;;;;;;;;;14.72;100.00;99891.03;5089187;28;20027;-55
2023/04/29 03:40:13;;;;;;;;;;;;;;;14.70;100.00;99900.06;5089998;28;19927;-55
2023/04/29 03:42:38;;;;;;;;;;;;;;;14.70;100.00;99900.06;5088371;28;20000;-56
2023/04/29 03:45:03;;;;;;;;;;;;;;;14.65;100.00;99897.63;5089283;28;19920;-55
2023/04/29 03:47:28;;;;;;;;;;;;;;;14.60;100.00;99906.84;5088441;28;19923;-55
2023/04/29 03:49:54;;;;;;;;;;;;;;;14.56;100.00;99903.47;5088855;28;20652;-55
2023/04/29 03:52:19;;;;;;;;;;;;;;;14.55;100.00;99903.56;5088259;28;19942;-55
2023/04/29 03:54:45;;;;;;;;;;;;;;;14.61;100.00;99914.81;5088853;28;20007;-55
2023/04/29 03:57:10;;;;;;;;;;;;;;;14.09;100.00;99903.13;5087042;28;20216;-55
2023/04/29 03:59:35;;;;;;;;;;;;;;;13.85;100.00;99906.09;5089174;28;20398;-55
2023/04/29 04:02:00;;;;;;;;;;;;;;;13.83;100.00;99914.19;5080769;28;20024;-56
2023/04/29 04:04:26;;;;;;;;;;;;;;;13.74;100.00;99911.09;5068495;28;20384;-55
2023/04/29 04:06:51;;;;;;;;;;;;;;;13.72;100.00;99910.28;5068688;28;19920;-55
2023/04/29 04:09:17;;;;;;;;;;;;;;;13.69;100.00;99918.47;5067570;28;19916;-55
2023/04/29 04:11:42;;;;;;;;;;;;;;;13.60;100.00;99911.72;5068182;28;20433;-56
2023/04/29 04:14:07;;;;;;;;;;;;;;;13.58;100.00;99920.75;5067372;28;19920;-55
2023/04/29 04:16:33;;;;;;;;;;;;;;;13.55;100.00;99926.22;5068332;28;19924;-56
2023/04/29 04:18:58;;;;;;;;;;;;;;;13.55;100.00;99926.22;5067028;28;20376;-55
2023/04/29 04:21:24;;;;;;;;;;;;;;;13.58;100.00;99931.44;5064956;28;19912;-55
2023/04/29 04:23:50;;;;;;;;;;;;;;;13.60;100.00;99929.56;5067092;28;19924;-55
2023/04/29 04:26:15;;;;;;;;;;;;;;;13.61;100.00;99939.31;5066251;28;20233;-56
2023/04/29 04:28:40;;;;;;;;;;;;;;;13.61;100.00;99941.97;5047515;28;19916;-56
2023/04/29 04:31:06;;;;;;;;;;;;;;;13.54;100.00;99940.53;5065398;28;20001;-55
2023/04/29 04:33:33;;;;;;;;;;;;;;;13.48;100.00;99941.69;5065444;28;19940;-55
2023/04/29 04:35:58;;;;;;;;;;;;;;;13.45;100.00;99941.81;5064268;28;20289;-55
2023/04/29 04:38:24;;;;;;;;;;;;;;;13.45;100.00;99951.63;5065911;28;19931;-56
2023/04/29 04:40:50;;;;;;;;;;;;;;;13.42;100.00;99951.78;5066900;28;19916;-55
2023/04/29 04:43:16;;;;;;;;;;;;;;;13.40;100.00;99957.19;5067336;28;19927;-55
2023/04/29 04:45:41;;;;;;;;;;;;;;;13.43;100.00;99965.06;5067264;28;19912;-55
2023/04/29 04:48:07;;;;;;;;;;;;;;;13.51;100.00;99964.75;5068225;28;19927;-56
2023/04/29 04:50:32;;;;;;;;;;;;;;;13.53;100.00;99965.50;5070787;28;20419;-56
2023/04/29 04:52:57;;;;;;;;;;;;;;;13.53;100.00;99971.75;5084408;28;19927;-55
2023/04/29 04:55:23;;;;;;;;;;;;;;;13.53;100.00;99971.75;5083195;28;19962;-55
2023/04/29 04:57:48;;;;;;;;;;;;;;;13.54;100.00;99970.78;5066825;28;20364;-55
2023/04/29 05:00:14;;;;;;;;;;;;;;;13.54;100.00;99983.31;5066355;28;19955;-55
2023/04/29 05:02:39;;;;;;;;;;;;;;;13.54;100.00;99984.16;5088270;28;20378;-56
2023/04/29 05:05:04;;;;;;;;;;;;;;;13.53;100.00;99989.56;5088392;28;19983;-55
2023/04/29 05:07:30;;;;;;;;;;;;;;;13.56;100.00;99992.97;5087370;28;20436;-56
2023/04/29 05:09:55;;;;;;;;;;;;;;;13.60;100.00;99991.91;5087349;28;19916;-55
2023/04/29 05:12:20;;;;;;;;;;;;;;;13.61;100.00;100000.78;5087219;28;19912;-55
2023/04/29 05:14:46;;;;;;;;;;;;;;;13.68;100.00;99994.22;5087297;28;19923;-55
2023/04/29 05:17:11;;;;;;;;;;;;;;;13.82;100.00;99997.16;5087193;28;19947;-55
2023/04/29 05:19:36;;;;;;;;;;;;;;;13.96;100.00;99997.38;5086354;28;19967;-55
2023/04/29 05:22:01;;;;;;;;;;;;;;;13.97;100.00;99996.44;5088319;28;20356;-55
2023/04/29 05:24:28;;;;;;;;;;;;;;;14.28;100.00;100004.78;5087188;28;19982;-56
2023/04/29 05:26:53;;;;;;;;;;;;;;;14.83;100.00;100008.28;5088076;28;19916;-55
2023/04/29 05:29:19;;;;;;;;;;;;;;;15.27;100.00;99997.06;5087180;28;19923;-56
2023/04/29 05:31:44;;;;;;;;;;;;;;;15.53;100.00;100007.31;5086933;28;19922;-56
2023/04/29 05:34:10;;;;;;;;;;;;;;;15.52;100.00;100010.94;5088332;28;19919;-55
2023/04/29 05:36:35;;;;;;;;;;;;;;;15.54;100.00;100017.09;5086250;28;19940;-55
2023/04/29 05:39:00;;;;;;;;;;;;;;;15.88;100.00;100018.00;5085141;28;19927;-55
2023/04/29 05:41:26;;;;;;;;;;;;;;;16.11;100.00;100020.28;5086422;28;19923;-55
2023/04/29 05:43:51;;;;;;;;;;;;;;;16.37;99.20;100019.69;5104930;28;19920;-56
2023/04/29 05:46:16;;;;;;;;;;;;;;;16.45;97.91;100029.09;5087443;28;19964;-56
2023/04/29 05:48:42;;;;;;;;;;;;;;;16.71;98.39;100023.09;5086165;28;19920;-56
2023/04/29 05:51:07;;;;;;;;;;;;;;;17.21;95.62;100033.59;5086222;28;20049;-55
2023/04/29 05:53:32;;;;;;;;;;;;;;;17.07;92.77;100038.91;5086590;28;19916;-56
2023/04/29 05:55:58;;;;;;;;;;;;;;;16.51;90.94;100052.03;5086247;28;20244;-55
2023/04/29 05:58:24;;;;;;;;;;;;;;;16.24;93.76;100048.19;5086547;28;19920;-56
2023/04/29 06:00:49;;;;;;;;;;;;;;;16.24;94.53;100053.53;5085320;28;19967;-56
2023/04/29 06:03:15;;;;;;;;;;;;;;;16.11;94.44;100057.84;5086588;28;20457;-55
2023/04/29 06:05:40;;;;;;;;;;;;;;;16.02;95.21;100063.69;5088239;28;20424;-55
2023/04/29 06:08:06;;;;;;;;;;;;;;;16.00;94.88;100065.59;5090167;28;19924;-55
2023/04/29 06:10:32;;;;;;;;;;;;;;;15.95;95.36;100062.31;5088888;28;20114;-55
2023/04/29 06:12:57;;;;;;;;;;;;;;;16.17;96.12;100062.88;5089925;28;20304;-55
2023/04/29 06:15:22;;;;;;;;;;;;;;;16.22;95.30;100060.81;5088756;28;20079;-55
2023/04/29 06:17:48;;;;;;;;;;;;;;;16.38;96.71;100059.00;5090500;28;20009;-56
2023/04/29 06:20:13;;;;;;;;;;;;;;;16.49;96.14;100060.19;5091617;28;19959;-55
2023/04/29 06:22:38;;;;;;;;;;;;;;;16.56;95.61;100068.75;5089686;28;19924;-55
2023/04/29 06:25:04;;;;;;;;;;;;;;;16.61;94.87;100064.88;5087726;28;19930;-56
2023/04/29 06:27:29;;;;;;;;;;;;;;;16.59;92.72;100064.09;5089945;28;19915;-56
2023/04/29 06:29:55;;;;;;;;;;;;;;;16.73;93.28;100057.94;5074293;28;19924;-56
2023/04/29 06:32:20;;;;;;;;;;;;;;;16.90;93.56;100072.13;5069156;28;20339;-56
2023/04/29 06:34:46;;;;;;;;;;;;;;;16.98;93.16;100074.38;5088667;28;19974;-56
2023/04/29 06:37:11;;;;;;;;;;;;;;;17.04;92.26;100071.34;5089759;28;19912;-56
2023/04/29 06:39:36;;;;;;;;;;;;;;;17.11;91.17;100078.09;5087555;28;20038;-56
2023/04/29 06:42:02;;;;;;;;;;;;;;;17.23;91.59;100072.00;5091618;28;19923;-55
2023/04/29 06:44:27;;;;;;;;;;;;;;;17.30;91.20;100070.66;5089210;28;20288;-56
2023/04/29 06:46:53;;;;;;;;;;;;;;;17.49;89.86;100071.38;5084271;28;20380;-56
2023/04/29 06:49:18;;;;;;;;;;;;;;;17.60;88.64;100079.66;5090970;28;19965;-56
2023/04/29 06:51:43;;;;;;;;;;;;;;;17.67;87.78;100081.03;5088107;28;19920;-55
2023/04/29 06:54:08;;;;;;;;;;;;;;;17.50;85.52;100091.91;5090645;28;19930;-55
2023/04/29 06:56:34;;;;;;;;;;;;;;;17.60;85.61;100089.53;5084139;28;19919;-56
2023/04/29 06:58:59;;;;;;;;;;;;;;;17.84;85.64;100098.84;5087466;28;20585;-56
2023/04/29 07:01:24;;;;;;;;;;;;;;;18.05;82.42;100097.50;5088792;28;19930;-56
2023/04/29 07:03:50;;;;;;;;;;;;;;;17.89;81.02;100092.19;5086346;28;19920;-55
2023/04/29 07:06:15;;;;;;;;;;;;;;;18.12;79.06;100093.50;5088233;28;19955;-56
2023/04/29 07:08:40;;;;;;;;;;;;;;;18.60;80.38;100087.72;5087862;28;19920;-56
2023/04/29 07:11:06;;;;;;;;;;;;;;;18.94;78.35;100091.78;5087545;28;20024;-56
2023/04/29 07:13:31;;;;;;;;;;;;;;;19.00;76.92;100094.06;5088423;28;19916;-56
2023/04/29 07:15:56;;;;;;;;;;;;;;;19.12;75.61;100096.84;5087336;28;20271;-56
2023/04/29 07:18:22;;;;;;;;;;;;;;;19.34;75.55;100093.63;5076765;28;20073;-56
2023/04/29 07:20:47;;;;;;;;;;;;;;;19.44;74.70;100100.09;5088233;28;19916;-56
2023/04/29 07:23:13;;;;;;;;;;;;;;;19.81;75.02;100098.47;5086857;28;19943;-56
2023/04/29 07:25:38;;;;;;;;;;;;;;;20.14;73.07;100102.41;5087432;28;19951;-56
2023/04/29 07:28:04;;;;;;;;;;;;;;;20.17;71.99;100110.31;5089305;28;19920;-56
2023/04/29 07:30:29;;;;;;;;;;;;;;;20.17;67.90;100107.59;5087870;28;20280;-56
2023/04/29 07:32:55;;;;;;;;;;;;;;;19.93;67.29;100109.31;5085679;28;19920;-56
2023/04/29 07:35:21;;;;;;;;;;;;;;;20.29;70.20;100116.69;5087868;28;19923;-57
2023/04/29 07:37:47;;;;;;;;;;;;;;;20.65;68.68;100111.34;5088159;28;20011;-56
2023/04/29 07:40:12;;;;;;;;;;;;;;;20.48;65.89;100114.38;5084457;28;19920;-56
2023/04/29 07:42:37;;;;;;;;;;;;;;;20.62;67.30;100103.47;5092690;28;19915;-56
2023/04/29 07:45:03;;;;;;;;;;;;;;;20.82;67.26;100111.84;5086547;28;19928;-57
2023/04/29 07:47:28;;;;;;;;;;;;;;;21.19;64.89;100109.16;5086870;28;19923;-57
2023/04/29 07:49:53;;;;;;;;;;;;;;;21.28;64.21;100114.78;5087173;28;19949;-57
2023/04/29 07:52:19;;;;;;;;;;;;;;;21.54;62.37;100118.22;5086226;28;19935;-57
2023/04/29 07:54:44;;;;;;;;;;;;;;;21.53;63.78;100114.63;5087578;28;19912;-57
2023/04/29 07:57:09;;;;;;;;;;;;;;;21.69;63.28;100115.22;5087382;28;20287;-57
2023/04/29 07:59:35;;;;;;;;;;;;;;;21.55;61.36;100120.81;5086708;28;20291;-57
2023/04/29 08:02:00;;;;;;;;;;;;;;;21.17;61.69;100121.97;5085981;28;19935;-57
2023/04/29 08:04:25;;;;;;;;;;;;;;;21.40;62.10;100130.06;5088169;28;20407;-57
2023/04/29 08:06:51;;;;;;;;;;;;;;;22.07;61.48;100136.66;5087497;28;19920;-57
2023/04/29 08:09:16;;;;;;;;;;;;;;;21.83;58.50;100127.72;5081091;28;20073;-57
2023/04/29 08:11:42;;;;;;;;;;;;;;;21.19;58.19;100136.22;5087361;28;19920;-57
2023/04/29 08:14:08;;;;;;;;;;;;;;;21.20;61.28;100138.84;5084745;28;19953;-57
2023/04/29 08:16:33;;;;;;;;;;;;;;;21.68;60.74;100137.00;5088486;28;20343;-57
2023/04/29 08:18:58;;;;;;;;;;;;;;;22.00;58.74;100136.28;5087117;28;19919;-57
2023/04/29 08:21:23;;;;;;;;;;;;;;;21.88;58.45;100139.06;5087063;28;19919;-57
2023/04/29 08:23:49;;;;;;;;;;;;;;;20.92;53.78;100145.34;5071863;28;19921;-57
2023/04/29 08:26:14;;;;;;;;;;;;;;;20.70;59.12;100145.19;5081540;28;20006;-57
2023/04/29 08:28:39;;;;;;;;;;;;;;;20.29;60.71;100158.09;5087888;28;20380;-57
2023/04/29 08:31:09;;;;;;;;;;;;;;;19.95;62.53;100149.69;5087210;28;19955;-57
2023/04/29 08:33:35;;;;;;;;;;;;;;;19.63;63.96;100159.97;5085352;28;19944;-57
2023/04/29 08:36:02;;;;;;;;;;;;;;;19.50;64.55;100142.88;5089348;28;20378;-57
2023/04/29 08:38:27;;;;;;;;;;;;;;;19.22;64.86;100142.94;5088158;28;19920;-57
2023/04/29 08:40:53;;;;;;;;;;;;;;;19.57;64.84;100145.06;5089089;28;20311;-57
2023/04/29 08:43:19;;;;;;;;;;;;;;;20.08;67.35;100143.31;5092922;28;19930;-57
2023/04/29 08:45:47;;;;;;;;;;;;;;;20.57;59.76;100133.53;5093173;28;20371;-57
2023/04/29 08:48:12;;;;;;;;;;;;;;;20.82;57.31;100136.19;5078372;28;20294;-57
2023/04/29 08:50:39;;;;;;;;;;;;;;;21.05;57.92;100145.38;5077723;28;19950;-57
2023/04/29 08:53:08;;;;;;;;;;;;;;;20.87;55.28;100136.72;5071870;28;19974;-57
2023/04/29 08:55:41;;;;;;;;;;;;;;;20.48;55.72;100150.41;5085783;28;19920;-57
2023/04/29 08:58:06;;;;;;;;;;;;;;;20.35;59.35;100149.53;5088190;28;19923;-57
2023/04/29 09:00:33;;;;;;;;;;;;;;;20.57;59.78;100151.59;5086484;28;20338;-57
2023/04/29 09:02:59;;;;;;;;;;;;;;;20.90;59.16;100147.31;5087973;28;19920;-57
2023/04/29 09:05:25;;;;;;;;;;;;;;;20.54;56.30;100160.75;5086814;28;19971;-57
2023/04/29 09:07:51;;;;;;;;;;;;;;;20.94;55.32;100159.63;5088518;28;19919;-57
2023/04/29 09:10:17;;;;;;;;;;;;;;;22.09;56.23;100156.38;5070672;28;19919;-57
2023/04/29 09:12:42;;;;;;;;;;;;;;;22.40;52.92;100150.28;5081677;28;19966;-57
2023/04/29 09:15:08;;;;;;;;;;;;;;;22.23;53.39;100156.16;5089022;28;19926;-57
2023/04/29 09:17:42;;;;;;;;;;;;;;;21.59;51.34;100156.63;5089435;28;20038;-57
2023/04/29 09:20:20;;;;;;;;;;;;;;;21.24;52.59;100158.38;5087882;28;19916;-57
2023/04/29 09:22:56;;;;;;;;;;;;;;;20.90;56.69;100168.09;5088178;28;19924;-57
2023/04/29 09:25:22;;;;;;;;;;;;;;;20.89;57.05;100161.81;5087544;28;20435;-57
2023/04/29 09:27:47;;;;;;;;;;;;;;;20.74;56.91;100157.50;5088808;28;20011;-57
2023/04/29 09:30:15;;;;;;;;;;;;;;;20.84;56.75;100160.41;5088502;28;19920;-57
2023/04/29 09:32:40;;;;;;;;;;;;;;;20.51;57.23;100171.78;5070209;28;19924;-58
2023/04/29 09:35:22;;;;;;;;;;;;;;;19.92;57.52;100171.50;5088856;28;19973;-57
2023/04/29 09:37:48;;;;;;;;;;;;;;;19.90;58.27;100163.47;5088883;28;20648;-57
2023/04/29 09:40:33;;;;;;;;;;;;;;;19.76;55.01;100177.06;5101237;28;19951;-57
2023/04/29 09:42:58;;;;;;;;;;;;;;;20.55;56.37;100165.22;5104128;28;19970;-58
2023/04/29 09:45:33;;;;;;;;;;;;;;;20.69;52.41;100165.06;5075668;28;19960;-57
2023/04/29 09:48:02;;;;;;;;;;;;;;;20.91;52.73;100169.81;5090399;28;20027;-58
2023/04/29 09:50:28;;;;;;;;;;;;;;;21.02;53.04;100169.06;5091063;28;19920;-57
2023/04/29 09:52:53;;;;;;;;;;;;;;;21.15;50.81;100168.06;5082233;28;19925;-57
2023/04/29 09:55:19;;;;;;;;;;;;;;;21.43;52.17;100161.47;5092414;28;20354;-57
2023/04/29 09:57:44;;;;;;;;;;;;;;;21.64;53.65;100159.84;5093323;28;19922;-58
2023/04/29 10:00:10;;;;;;;;;;;;;;;21.50;53.54;100162.75;5092682;28;19919;-58
2023/04/29 10:02:40;;;;;;;;;;;;;;;21.17;51.63;100157.13;5092463;28;19920;-58
2023/04/29 10:05:05;;;;;;;;;;;;;;;20.94;53.28;100164.16;5092674;28;20144;-58
2023/04/29 10:07:31;;;;;;;;;;;;;;;20.73;55.33;100160.31;5093187;28;20451;-57
2023/04/29 10:09:57;;;;;;;;;;;;;;;20.76;55.29;100160.97;5078419;28;20368;-57
2023/04/29 10:12:23;;;;;;;;;;;;;;;20.62;57.62;100163.81;5086815;28;19920;-57
2023/04/29 10:15:02;;;;;;;;;;;;;;;20.73;55.28;100155.78;5091867;28;20026;-57
2023/04/29 10:17:46;;;;;;;;;;;;;;;20.83;56.94;100156.84;5086133;28;19920;-57
2023/04/29 10:20:16;;;;;;;;;;;;;;;20.78;55.37;100164.44;5090428;28;20463;-57
2023/04/29 10:22:46;;;;;;;;;;;;;;;20.59;56.65;100174.81;5091120;28;19926;-57
2023/04/29 10:25:13;;;;;;;;;;;;;;;20.32;54.99;100168.66;5091762;28;20003;-57
2023/04/29 10:27:41;;;;;;;;;;;;;;;20.42;56.13;100172.47;5091286;28;19973;-57
2023/04/29 10:30:08;;;;;;;;;;;;;;;20.72;53.52;100166.72;5091965;28;19920;-57
2023/04/29 10:32:33;;;;;;;;;;;;;;;21.18;54.72;100158.84;5092762;28;20003;-58
2023/04/29 10:34:59;;;;;;;;;;;;;;;21.57;50.48;100158.59;5092131;28;20010;-57
2023/04/29 10:37:25;;;;;;;;;;;;;;;21.84;50.81;100156.53;5091571;28;20323;-58
2023/04/29 10:40:05;;;;;;;;;;;;;;;21.81;47.14;100151.34;5092633;28;19974;-57
2023/04/29 10:42:43;;;;;;;;;;;;;;;22.28;51.14;100147.66;5084007;28;20457;-57
2023/04/29 10:45:21;;;;;;;;;;;;;;;22.44;51.40;100146.34;5092702;28;19924;-57
2023/04/29 10:48:01;;;;;;;;;;;;;;;22.11;50.22;100140.84;5093487;28;19919;-57
2023/04/29 10:50:47;;;;;;;;;;;;;;;21.94;48.90;100146.72;5078137;28;20352;-58
2023/04/29 10:53:13;;;;;;;;;;;;;;;21.95;51.28;100143.91;5065595;28;19916;-58
2023/04/29 10:55:39;;;;;;;;;;;;;;;22.73;48.70;100144.94;5075269;28;19926;-57
2023/04/29 10:58:05;;;;;;;;;;;;;;;22.98;48.71;100136.50;5084000;28;19924;-58
2023/04/29 11:00:31;;;;;;;;;;;;;;;23.00;50.77;100133.66;5092444;28;19962;-57
2023/04/29 11:02:57;;;;;;;;;;;;;;;22.87;49.41;100141.94;5091001;28;20403;-58
2023/04/29 11:05:33;;;;;;;;;;;;;;;22.63;47.94;100135.81;5074335;28;19921;-57
2023/04/29 11:08:11;;;;;;;;;;;;;;;22.41;49.87;100135.75;5088900;28;20662;-57
2023/04/29 11:10:37;;;;;;;;;;;;;;;22.04;49.38;100131.50;5091283;28;19960;-57
2023/04/29 11:13:21;;;;;;;;;;;;;;;21.97;53.39;100131.09;5091112;28;20038;-57
2023/04/29 11:15:47;;;;;;;;;;;;;;;21.96;54.07;100136.63;5092195;28;19912;-57
2023/04/29 11:18:13;;;;;;;;;;;;;;;21.93;51.71;100135.03;5092016;28;20500;-57
2023/04/29 11:20:57;;;;;;;;;;;;;;;21.79;51.66;100132.53;5091796;28;19920;-58
2023/04/29 11:23:26;;;;;;;;;;;;;;;21.91;52.37;100125.31;5087134;28;20283;-57
2023/04/29 11:25:51;;;;;;;;;;;;;;;21.80;51.98;100138.78;5090818;28;20898;-57
2023/04/29 11:28:17;;;;;;;;;;;;;;;22.73;50.31;100136.78;5090186;28;19919;-57
2023/04/29 11:30:44;;;;;;;;;;;;;;;24.05;44.83;100137.47;5090777;28;20301;-57
2023/04/29 11:33:09;;;;;;;;;;;;;;;24.82;45.31;100126.06;5090172;28;19965;-58
2023/04/29 11:35:38;;;;;;;;;;;;;;;25.39;43.63;100126.25;5090042;28;19920;-57
2023/04/29 11:38:03;;;;;;;;;;;;;;;25.35;43.28;100127.56;5090902;28;19938;-58
2023/04/29 11:40:31;;;;;;;;;;;;;;;25.05;43.53;100130.31;5074791;28;19920;-57
2023/04/29 11:42:56;;;;;;;;;;;;;;;24.40;42.53;100141.56;5091440;28;20439;-58
2023/04/29 11:45:21;;;;;;;;;;;;;;;23.73;43.63;100142.03;5091749;28;20016;-57
2023/04/29 11:47:47;;;;;;;;;;;;;;;23.32;46.20;100129.22;5110770;28;19926;-57
2023/04/29 11:50:15;;;;;;;;;;;;;;;22.69;45.37;100137.13;5089848;28;20403;-57
2023/04/29 11:52:40;;;;;;;;;;;;;;;22.33;48.54;100143.63;5085494;28;20029;-57
2023/04/29 11:55:09;;;;;;;;;;;;;;;22.37;51.35;100139.69;5090769;28;20011;-57
2023/04/29 11:57:34;;;;;;;;;;;;;;;22.22;51.42;100140.91;5089792;28;20818;-57
2023/04/29 12:00:00;;;;;;;;;;;;;;;22.07;49.65;100137.50;5090482;28;19916;-57
2023/04/29 12:02:32;;;;;;;;;;;;;;;21.95;52.34;100148.44;5089351;28;20004;-57
2023/04/29 12:04:59;;;;;;;;;;;;;;;21.84;52.00;100140.28;5083075;28;20022;-57
2023/04/29 12:07:25;;;;;;;;;;;;;;;21.68;51.98;100150.53;5085081;28;19935;-57
2023/04/29 12:09:50;;;;;;;;;;;;;;;21.74;53.20;100150.06;5087714;28;19912;-57
2023/04/29 12:12:16;;;;;;;;;;;;;;;21.78;51.36;100148.84;5067804;28;19942;-57
2023/04/29 12:14:41;;;;;;;;;;;;;;;21.79;53.42;100142.47;5087630;28;20664;-57
2023/04/29 12:17:08;;;;;;;;;;;;;;;21.74;51.97;100150.06;5086778;28;20383;-57
2023/04/29 12:19:33;;;;;;;;;;;;;;;21.79;53.39;100143.34;5085989;28;19927;-56
2023/04/29 12:21:59;;;;;;;;;;;;;;;21.79;50.01;100154.19;5069055;28;19917;-57
2023/04/29 12:24:25;;;;;;;;;;;;;;;21.75;50.57;100140.94;5088350;28;19928;-57
2023/04/29 12:26:50;;;;;;;;;;;;;;;21.51;47.73;100151.81;5087793;28;19995;-58
2023/04/29 12:29:15;;;;;;;;;;;;;;;21.31;51.35;100146.16;5089485;28;19916;-57
2023/04/29 12:31:41;;;;;;;;;;;;;;;21.47;52.71;100150.28;5078373;28;19977;-57
2023/04/29 12:34:06;;;;;;;;;;;;;;;21.52;54.20;100144.53;5088802;28;20294;-57